• Join FlightAware (Why Join?)
  • Login
  • US Flag 
09:09PM EDT


 

Airport Tracker/Info


-or-


 

Live Flight TrackerFlight Track Log ✈ N700QA ✈ 12-Sep-2013 ✈ KSFO - KVNY

Flight Track Log - Related Links

Times and Time Zones

All times are in EDT time to prevent confusion due to time zone crossing. See the N700QA flight status page for this flight to view local times or setup timezone preferences in your user account.

Time Position Orientation Groundspeed Altitude Reporting Facility
EDT Latitude Longitude Course Direction KTS MPH feet Rate Location/Type
11:12PM 37.6503 -122.3717 316° Northwest 166 191 1,900  Level Oakland Center
11:13PM 37.6869 -122.4167 316° Northwest 220 253 5,100 2,760 Climbing Oakland Center
11:14PM 37.6439 -122.4633 221° Southwest 248 285 7,600 2,580 Climbing Oakland Center
11:15PM 37.5664 -122.4467 170° South 275 316 10,500 2,520 Climbing Oakland Center
11:16PM 37.4936 -122.4103 158° South 288 331 12,800 1,860 Climbing Oakland Center
11:17PM 37.4364 -122.3342 133° Southeast 299 344 14,300 1,560 Climbing Oakland Center
11:18PM 37.3767 -122.2486 131° Southeast 322 371 16,000 1,500 Climbing Oakland Center
11:19PM 37.3136 -122.1625 133° Southeast 335 386 17,400 1,440 Climbing Oakland Center
11:20PM 37.2489 -122.0739 133° Southeast 344 396 19,000 1,560 Climbing Oakland Center
11:21PM 37.1614 -121.9767 138° Southeast 354 407 20,600 1,320 Climbing Oakland Center
11:22PM 37.0839 -121.8975 141° Southeast 360 414 21,700 1,140 Climbing Oakland Center
11:23PM 37.0053 -121.8108 139° Southeast 375 432 23,000 1,200 Climbing Oakland Center
11:24PM 36.9228 -121.7300 142° Southeast 376 433 24,200 1,080 Climbing Oakland Center
11:25PM 36.8406 -121.6444 140° Southeast 385 443 25,300 1,020 Climbing Oakland Center
11:26PM 36.7581 -121.5553 139° Southeast 393 452 26,300 780 Climbing Oakland Center
11:27PM 36.6719 -121.4669 141° Southeast 403 464 27,000 360 Climbing Oakland Center
11:28PM 36.5811 -121.3725 140° Southeast 420 483 27,100  Climbing Oakland Center
11:29PM 36.4861 -121.2744 140° Southeast 440 506 27,100  Level Oakland Center
11:30PM 36.3728 -121.1536 139° Southeast 449 517 27,100  Level Oakland Center
11:31PM 36.2756 -121.0547 141° Southeast 452 520 27,100  Level Oakland Center
11:32PM 36.1783 -120.9550 140° Southeast 453 521 27,100  Level Oakland Center
11:33PM 36.0817 -120.8553 140° Southeast 454 522 27,100  Level Oakland Center
11:34PM 35.9839 -120.7561 141° Southeast 454 522 27,100  Level Oakland Center
11:35PM 35.8853 -120.6564 141° Southeast 458 527 27,100  Level Oakland Center
11:36PM 35.7881 -120.5556 140° Southeast 458 527 27,100  Level Oakland Center
11:37PM 35.6889 -120.4558 141° Southeast 459 528 27,100 -60 Level Oakland Center
11:38PM 35.5861 -120.3547 141° Southeast 456 525 27,000 -60 Descending Oakland Center
11:39PM 35.4883 -120.2553 140° Southeast 455 524 27,000 -480 Level Oakland Center
11:40PM 35.3867 -120.1531 141° Southeast 458 527 26,100 -960 Descending Oakland Center
11:41PM 35.2853 -120.0517 141° Southeast 464 534 25,100 -900 Descending Oakland Center
11:42PM 35.2458 -120.0114 140° Southeast 464 534 24,700 -720 Descending Los Angeles Center
11:43PM 35.1272 -119.8953 141° Southeast 456 525 24,000 -1,020 Descending Los Angeles Center
11:44PM 35.0369 -119.7947 138° Southeast 446 513 22,700 -1,800 Descending Los Angeles Center
11:45PM 34.9436 -119.6594 130° Southeast 437 503 20,300 -2,160 Descending Los Angeles Center
11:46PM 34.8650 -119.5533 132° Southeast 426 490 18,300 -1,980 Descending Los Angeles Center
11:47PM 34.7883 -119.4525 133° Southeast 412 474 16,300 -1,980 Descending Los Angeles Center
11:48PM 34.7150 -119.3542 132° Southeast 398 458 14,300 -1,980 Descending Los Angeles Center
11:49PM 34.6453 -119.2606 132° Southeast 379 436 12,300 -1,560 Descending Los Angeles Center
11:50PM 34.5878 -119.1814 131° Southeast 326 375 11,100 -660 Descending Los Angeles Center
11:51PM 34.5192 -119.0908 133° Southeast 308 354 11,000 -60 Descending Los Angeles Center
11:52PM 34.4592 -119.0128 133° Southeast 315 362 11,000 -360 Level Los Angeles Center
11:53PM 34.4244 -118.9214 115° Southeast 304 350 10,300 -1,080 Descending Los Angeles Center
11:54PM 34.4106 -118.8467 103° East 290 334 8,900 -1,860 Descending Los Angeles Center
11:55PM 34.3906 -118.7344 102° East 283 326 6,600 -1,560 Descending Los Angeles Center
11:57PM 34.3736 -118.6411 102° East 286 329 5,400 -960 Descending Los Angeles Center
11:58PM 34.3500 -118.5667 111° Southeast 202 232 4,700 -1,140 Descending Southern California TRACON
11:58PM 34.3167 -118.5167 129° Southeast 166 191 3,500 -1,200 Descending Southern California TRACON
12:00AM 34.2833 -118.5000 158° South 154 177 2,300 -1,080 Descending Southern California TRACON
12:01AM 34.2333 -118.4833 165° South 134 154 1,300 -1,020 Descending Southern California TRACON
12:03AM 34.2098 -118.4900 180° South  Level Estimated